sensor_id;sensor_type;location;lat;lon;timestamp;temperature;humidity
13606;DHT22;6874;52.084;5.090;2023-02-01T00:01:13;4.30;99.90
13606;DHT22;6874;52.084;5.090;2023-02-01T00:03:39;4.30;99.90
13606;DHT22;6874;52.084;5.090;2023-02-01T00:06:05;4.30;99.90
13606;DHT22;6874;52.084;5.090;2023-02-01T00:08:30;4.30;99.90
13606;DHT22;6874;52.084;5.090;2023-02-01T00:13:34;4.30;99.90
13606;DHT22;6874;52.084;5.090;2023-02-01T00:16:08;4.30;99.90
13606;DHT22;6874;52.084;5.090;2023-02-01T00:18:35;4.30;99.90
13606;DHT22;6874;52.084;5.090;2023-02-01T00:21:01;4.30;99.90
13606;DHT22;6874;52.084;5.090;2023-02-01T00:23:27;4.30;99.90
13606;DHT22;6874;52.084;5.090;2023-02-01T00:25:53;4.30;99.90
13606;DHT22;6874;52.084;5.090;2023-02-01T00:28:19;4.40;99.90
13606;DHT22;6874;52.084;5.090;2023-02-01T00:30:44;4.40;99.90
13606;DHT22;6874;52.084;5.090;2023-02-01T00:33:10;4.40;99.90
13606;DHT22;6874;52.084;5.090;2023-02-01T00:35:35;4.40;99.90
13606;DHT22;6874;52.084;5.090;2023-02-01T00:38:01;4.40;99.90
13606;DHT22;6874;52.084;5.090;2023-02-01T00:40:27;4.40;99.90
13606;DHT22;6874;52.084;5.090;2023-02-01T00:42:53;4.40;99.90
13606;DHT22;6874;52.084;5.090;2023-02-01T00:45:19;4.40;99.90
13606;DHT22;6874;52.084;5.090;2023-02-01T00:47:44;4.50;99.90
13606;DHT22;6874;52.084;5.090;2023-02-01T00:50:10;4.40;99.90
13606;DHT22;6874;52.084;5.090;2023-02-01T00:52:36;4.40;99.90
13606;DHT22;6874;52.084;5.090;2023-02-01T00:55:02;4.50;99.90
13606;DHT22;6874;52.084;5.090;2023-02-01T00:57:27;4.50;99.90
13606;DHT22;6874;52.084;5.090;2023-02-01T00:59:53;4.50;99.90
13606;DHT22;6874;52.084;5.090;2023-02-01T01:02:19;4.60;99.90
13606;DHT22;6874;52.084;5.090;2023-02-01T01:04:44;4.50;99.90
13606;DHT22;6874;52.084;5.090;2023-02-01T01:07:10;4.50;99.90
13606;DHT22;6874;52.084;5.090;2023-02-01T01:09:35;4.50;99.90
13606;DHT22;6874;52.084;5.090;2023-02-01T01:12:01;4.50;99.90
13606;DHT22;6874;52.084;5.090;2023-02-01T01:14:29;4.60;99.90
13606;DHT22;6874;52.084;5.090;2023-02-01T01:16:55;4.60;99.90
13606;DHT22;6874;52.084;5.090;2023-02-01T01:19:21;4.60;99.90
13606;DHT22;6874;52.084;5.090;2023-02-01T01:21:49;4.60;99.90
13606;DHT22;6874;52.084;5.090;2023-02-01T01:24:15;4.60;99.90
13606;DHT22;6874;52.084;5.090;2023-02-01T01:26:40;4.60;99.90
13606;DHT22;6874;52.084;5.090;2023-02-01T01:29:08;4.60;99.90
13606;DHT22;6874;52.084;5.090;2023-02-01T01:31:34;4.60;99.90
13606;DHT22;6874;52.084;5.090;2023-02-01T01:33:59;4.70;99.90
13606;DHT22;6874;52.084;5.090;2023-02-01T01:36:26;4.60;99.90
13606;DHT22;6874;52.084;5.090;2023-02-01T01:38:52;4.70;99.90
13606;DHT22;6874;52.084;5.090;2023-02-01T01:41:24;4.70;99.90
13606;DHT22;6874;52.084;5.090;2023-02-01T01:46:25;4.70;99.90
13606;DHT22;6874;52.084;5.090;2023-02-01T01:49:11;4.80;99.90
13606;DHT22;6874;52.084;5.090;2023-02-01T01:51:51;4.70;99.90
13606;DHT22;6874;52.084;5.090;2023-02-01T01:54:36;4.70;99.90
13606;DHT22;6874;52.084;5.090;2023-02-01T01:57:08;4.70;99.90
13606;DHT22;6874;52.084;5.090;2023-02-01T01:59:37;4.90;99.90
13606;DHT22;6874;52.084;5.090;2023-02-01T02:02:04;4.80;99.90
13606;DHT22;6874;52.084;5.090;2023-02-01T02:04:31;4.90;99.90
13606;DHT22;6874;52.084;5.090;2023-02-01T02:07:12;4.80;99.90
13606;DHT22;6874;52.084;5.090;2023-02-01T02:09:39;4.80;99.90
13606;DHT22;6874;52.084;5.090;2023-02-01T02:12:05;4.80;99.90
13606;DHT22;6874;52.084;5.090;2023-02-01T02:14:31;4.80;99.90
13606;DHT22;6874;52.084;5.090;2023-02-01T02:31:30;4.90;99.90
13606;DHT22;6874;52.084;5.090;2023-02-01T02:36:43;5.00;99.90
13606;DHT22;6874;52.084;5.090;2023-02-01T02:42:04;5.00;99.90
13606;DHT22;6874;52.084;5.090;2023-02-01T02:45:26;5.10;99.90
13606;DHT22;6874;52.084;5.090;2023-02-01T02:48:30;5.10;99.90
13606;DHT22;6874;52.084;5.090;2023-02-01T02:54:07;5.10;99.90
13606;DHT22;6874;52.084;5.090;2023-02-01T02:56:53;5.10;99.90
13606;DHT22;6874;52.084;5.090;2023-02-01T02:59:40;5.20;99.90
13606;DHT22;6874;52.084;5.090;2023-02-01T03:02:27;5.20;99.90
13606;DHT22;6874;52.084;5.090;2023-02-01T03:05:12;5.20;99.90
13606;DHT22;6874;52.084;5.090;2023-02-01T03:10:17;5.20;99.90
13606;DHT22;6874;52.084;5.090;2023-02-01T03:12:48;5.30;99.90
13606;DHT22;6874;52.084;5.090;2023-02-01T03:18:13;5.30;99.90
13606;DHT22;6874;52.084;5.090;2023-02-01T03:20:46;5.30;99.90
13606;DHT22;6874;52.084;5.090;2023-02-01T03:23:16;5.30;99.90
13606;DHT22;6874;52.084;5.090;2023-02-01T03:25:47;5.30;99.90
13606;DHT22;6874;52.084;5.090;2023-02-01T03:28:15;5.30;99.90
13606;DHT22;6874;52.084;5.090;2023-02-01T03:30:44;5.30;99.90
13606;DHT22;6874;52.084;5.090;2023-02-01T03:33:15;5.30;99.90
13606;DHT22;6874;52.084;5.090;2023-02-01T03:36:07;5.30;99.90
13606;DHT22;6874;52.084;5.090;2023-02-01T03:44:16;5.30;99.90
13606;DHT22;6874;52.084;5.090;2023-02-01T03:49:37;5.30;99.90
13606;DHT22;6874;52.084;5.090;2023-02-01T03:52:06;5.30;99.90
13606;DHT22;6874;52.084;5.090;2023-02-01T03:54:32;5.30;99.90
13606;DHT22;6874;52.084;5.090;2023-02-01T03:57:03;5.30;99.90
13606;DHT22;6874;52.084;5.090;2023-02-01T03:59:30;5.30;99.90
13606;DHT22;6874;52.084;5.090;2023-02-01T04:01:56;5.30;99.90
13606;DHT22;6874;52.084;5.090;2023-02-01T04:04:21;5.30;99.90
13606;DHT22;6874;52.084;5.090;2023-02-01T04:06:48;5.30;99.90
13606;DHT22;6874;52.084;5.090;2023-02-01T04:09:14;5.30;99.90
13606;DHT22;6874;52.084;5.090;2023-02-01T04:11:40;5.30;99.90
13606;DHT22;6874;52.084;5.090;2023-02-01T04:14:05;5.30;99.90
13606;DHT22;6874;52.084;5.090;2023-02-01T04:16:31;5.30;99.90
13606;DHT22;6874;52.084;5.090;2023-02-01T04:18:58;5.30;99.90
13606;DHT22;6874;52.084;5.090;2023-02-01T04:21:25;5.30;99.90
13606;DHT22;6874;52.084;5.090;2023-02-01T04:23:53;5.30;99.90
13606;DHT22;6874;52.084;5.090;2023-02-01T04:26:19;5.40;99.90
13606;DHT22;6874;52.084;5.090;2023-02-01T04:28:45;5.30;99.90
13606;DHT22;6874;52.084;5.090;2023-02-01T04:31:14;5.40;99.90
13606;DHT22;6874;52.084;5.090;2023-02-01T04:33:39;5.40;99.90
13606;DHT22;6874;52.084;5.090;2023-02-01T04:36:05;5.40;99.90
13606;DHT22;6874;52.084;5.090;2023-02-01T04:38:31;5.40;99.90
13606;DHT22;6874;52.084;5.090;2023-02-01T04:40:58;5.40;99.90
13606;DHT22;6874;52.084;5.090;2023-02-01T04:43:24;5.40;99.90
13606;DHT22;6874;52.084;5.090;2023-02-01T04:45:50;5.40;99.90
13606;DHT22;6874;52.084;5.090;2023-02-01T04:48:17;5.50;99.90
13606;DHT22;6874;52.084;5.090;2023-02-01T04:50:44;5.50;99.90
13606;DHT22;6874;52.084;5.090;2023-02-01T04:53:13;5.50;99.90
13606;DHT22;6874;52.084;5.090;2023-02-01T04:55:39;5.50;99.90
13606;DHT22;6874;52.084;5.090;2023-02-01T04:58:05;5.40;99.90
13606;DHT22;6874;52.084;5.090;2023-02-01T05:00:31;5.40;99.90
13606;DHT22;6874;52.084;5.090;2023-02-01T05:02:56;5.40;99.90
13606;DHT22;6874;52.084;5.090;2023-02-01T05:05:22;5.50;99.90
13606;DHT22;6874;52.084;5.090;2023-02-01T05:07:48;5.50;99.90
13606;DHT22;6874;52.084;5.090;2023-02-01T05:10:13;5.40;99.90
13606;DHT22;6874;52.084;5.090;2023-02-01T05:12:39;5.50;99.90
13606;DHT22;6874;52.084;5.090;2023-02-01T05:15:23;5.40;99.90
13606;DHT22;6874;52.084;5.090;2023-02-01T05:17:48;5.40;99.90
13606;DHT22;6874;52.084;5.090;2023-02-01T05:20:14;5.60;99.90
13606;DHT22;6874;52.084;5.090;2023-02-01T05:22:41;5.40;99.90
13606;DHT22;6874;52.084;5.090;2023-02-01T05:25:07;5.40;99.90
13606;DHT22;6874;52.084;5.090;2023-02-01T05:27:32;5.40;99.90
13606;DHT22;6874;52.084;5.090;2023-02-01T05:29:58;5.40;99.90
13606;DHT22;6874;52.084;5.090;2023-02-01T05:32:23;5.40;99.90
13606;DHT22;6874;52.084;5.090;2023-02-01T05:34:49;5.40;99.90
13606;DHT22;6874;52.084;5.090;2023-02-01T05:37:15;5.40;99.90
13606;DHT22;6874;52.084;5.090;2023-02-01T05:39:40;5.40;99.90
13606;DHT22;6874;52.084;5.090;2023-02-01T05:42:06;5.40;99.90
13606;DHT22;6874;52.084;5.090;2023-02-01T05:44:31;5.40;99.90
13606;DHT22;6874;52.084;5.090;2023-02-01T05:46:57;5.40;99.90
13606;DHT22;6874;52.084;5.090;2023-02-01T05:49:22;5.40;99.90
13606;DHT22;6874;52.084;5.090;2023-02-01T05:51:48;5.40;99.90
13606;DHT22;6874;52.084;5.090;2023-02-01T05:54:14;5.40;99.90
13606;DHT22;6874;52.084;5.090;2023-02-01T05:56:39;5.40;99.90
13606;DHT22;6874;52.084;5.090;2023-02-01T05:59:06;5.40;99.90
13606;DHT22;6874;52.084;5.090;2023-02-01T06:01:31;5.40;99.90
13606;DHT22;6874;52.084;5.090;2023-02-01T06:03:57;5.40;99.90
13606;DHT22;6874;52.084;5.090;2023-02-01T06:06:23;5.40;99.90
13606;DHT22;6874;52.084;5.090;2023-02-01T06:08:48;5.40;99.90
13606;DHT22;6874;52.084;5.090;2023-02-01T06:11:14;5.50;99.90
13606;DHT22;6874;52.084;5.090;2023-02-01T06:13:40;5.50;99.90
13606;DHT22;6874;52.084;5.090;2023-02-01T06:16:05;5.40;99.90
13606;DHT22;6874;52.084;5.090;2023-02-01T06:18:33;5.40;99.90
13606;DHT22;6874;52.084;5.090;2023-02-01T06:20:59;5.40;99.90
13606;DHT22;6874;52.084;5.090;2023-02-01T06:23:26;5.40;99.90
13606;DHT22;6874;52.084;5.090;2023-02-01T06:25:57;5.40;99.90
13606;DHT22;6874;52.084;5.090;2023-02-01T06:28:23;5.40;99.90
13606;DHT22;6874;52.084;5.090;2023-02-01T06:30:49;5.40;99.90
13606;DHT22;6874;52.084;5.090;2023-02-01T06:33:15;5.40;99.90
13606;DHT22;6874;52.084;5.090;2023-02-01T06:35:42;5.40;99.90
13606;DHT22;6874;52.084;5.090;2023-02-01T06:38:11;5.40;99.90
13606;DHT22;6874;52.084;5.090;2023-02-01T06:40:37;5.40;99.90
13606;DHT22;6874;52.084;5.090;2023-02-01T06:43:03;5.40;99.90
13606;DHT22;6874;52.084;5.090;2023-02-01T06:45:29;5.40;99.90
13606;DHT22;6874;52.084;5.090;2023-02-01T06:47:55;5.40;99.90
13606;DHT22;6874;52.084;5.090;2023-02-01T06:50:20;5.40;99.90
13606;DHT22;6874;52.084;5.090;2023-02-01T06:52:46;5.40;99.90
13606;DHT22;6874;52.084;5.090;2023-02-01T06:55:12;5.40;99.90
13606;DHT22;6874;52.084;5.090;2023-02-01T06:57:38;5.40;99.90
13606;DHT22;6874;52.084;5.090;2023-02-01T07:00:05;5.40;99.90
13606;DHT22;6874;52.084;5.090;2023-02-01T07:02:30;5.40;99.90
13606;DHT22;6874;52.084;5.090;2023-02-01T07:04:56;5.40;99.90
13606;DHT22;6874;52.084;5.090;2023-02-01T07:07:22;5.40;99.90
13606;DHT22;6874;52.084;5.090;2023-02-01T07:09:51;5.50;99.90
13606;DHT22;6874;52.084;5.090;2023-02-01T07:12:16;5.40;99.90
13606;DHT22;6874;52.084;5.090;2023-02-01T07:14:42;5.50;99.90
13606;DHT22;6874;52.084;5.090;2023-02-01T07:17:08;5.50;99.90
13606;DHT22;6874;52.084;5.090;2023-02-01T07:19:33;5.50;99.90
13606;DHT22;6874;52.084;5.090;2023-02-01T07:21:59;5.50;99.90
13606;DHT22;6874;52.084;5.090;2023-02-01T07:24:24;5.50;99.90
13606;DHT22;6874;52.084;5.090;2023-02-01T07:26:50;5.50;99.90
13606;DHT22;6874;52.084;5.090;2023-02-01T07:29:17;5.50;99.90
13606;DHT22;6874;52.084;5.090;2023-02-01T07:31:43;5.50;99.90
13606;DHT22;6874;52.084;5.090;2023-02-01T07:34:09;5.60;99.90
13606;DHT22;6874;52.084;5.090;2023-02-01T07:36:34;5.50;99.90
13606;DHT22;6874;52.084;5.090;2023-02-01T07:39:02;5.50;99.90
13606;DHT22;6874;52.084;5.090;2023-02-01T07:41:28;5.60;99.90
13606;DHT22;6874;52.084;5.090;2023-02-01T07:43:54;5.60;99.90
13606;DHT22;6874;52.084;5.090;2023-02-01T07:46:31;5.60;99.90
13606;DHT22;6874;52.084;5.090;2023-02-01T07:48:57;5.60;99.90
13606;DHT22;6874;52.084;5.090;2023-02-01T07:51:22;5.60;99.90
13606;DHT22;6874;52.084;5.090;2023-02-01T07:53:48;5.60;99.90
13606;DHT22;6874;52.084;5.090;2023-02-01T07:56:15;5.60;99.90
13606;DHT22;6874;52.084;5.090;2023-02-01T07:58:42;5.60;99.90
13606;DHT22;6874;52.084;5.090;2023-02-01T08:01:19;5.60;99.90
13606;DHT22;6874;52.084;5.090;2023-02-01T08:03:49;5.60;99.90
13606;DHT22;6874;52.084;5.090;2023-02-01T08:06:15;5.60;99.90
13606;DHT22;6874;52.084;5.090;2023-02-01T08:08:40;5.60;99.90
13606;DHT22;6874;52.084;5.090;2023-02-01T08:11:07;5.60;99.90
13606;DHT22;6874;52.084;5.090;2023-02-01T08:13:34;5.60;99.90
13606;DHT22;6874;52.084;5.090;2023-02-01T08:16:02;5.60;99.90
13606;DHT22;6874;52.084;5.090;2023-02-01T08:18:29;5.60;99.90
13606;DHT22;6874;52.084;5.090;2023-02-01T08:20:55;5.60;99.90
13606;DHT22;6874;52.084;5.090;2023-02-01T08:23:22;5.60;99.90
13606;DHT22;6874;52.084;5.090;2023-02-01T08:25:48;5.50;99.90
13606;DHT22;6874;52.084;5.090;2023-02-01T08:28:14;5.60;99.90
13606;DHT22;6874;52.084;5.090;2023-02-01T08:30:40;5.60;99.90
13606;DHT22;6874;52.084;5.090;2023-02-01T08:33:09;5.60;99.90
13606;DHT22;6874;52.084;5.090;2023-02-01T08:35:35;5.60;99.90
13606;DHT22;6874;52.084;5.090;2023-02-01T08:38:02;5.60;99.90
13606;DHT22;6874;52.084;5.090;2023-02-01T08:40:28;5.60;99.90
13606;DHT22;6874;52.084;5.090;2023-02-01T08:42:53;5.60;99.90
13606;DHT22;6874;52.084;5.090;2023-02-01T08:45:24;5.60;99.90
13606;DHT22;6874;52.084;5.090;2023-02-01T08:47:54;5.60;99.90
13606;DHT22;6874;52.084;5.090;2023-02-01T08:50:20;5.60;99.90
13606;DHT22;6874;52.084;5.090;2023-02-01T08:52:47;5.60;99.90
13606;DHT22;6874;52.084;5.090;2023-02-01T08:55:13;5.60;99.90
13606;DHT22;6874;52.084;5.090;2023-02-01T08:57:39;5.60;99.90
13606;DHT22;6874;52.084;5.090;2023-02-01T09:00:07;5.60;99.90
13606;DHT22;6874;52.084;5.090;2023-02-01T09:02:33;5.60;99.90
13606;DHT22;6874;52.084;5.090;2023-02-01T09:04:59;5.60;99.90
13606;DHT22;6874;52.084;5.090;2023-02-01T09:07:25;5.70;99.90
13606;DHT22;6874;52.084;5.090;2023-02-01T09:09:52;5.70;99.90
13606;DHT22;6874;52.084;5.090;2023-02-01T09:12:20;5.70;99.90
13606;DHT22;6874;52.084;5.090;2023-02-01T09:14:45;5.70;99.90
13606;DHT22;6874;52.084;5.090;2023-02-01T09:17:11;5.70;99.90
13606;DHT22;6874;52.084;5.090;2023-02-01T09:19:39;5.70;99.90
13606;DHT22;6874;52.084;5.090;2023-02-01T09:22:05;5.80;99.90
13606;DHT22;6874;52.084;5.090;2023-02-01T09:24:31;5.80;99.90
13606;DHT22;6874;52.084;5.090;2023-02-01T09:26:56;5.80;99.90
13606;DHT22;6874;52.084;5.090;2023-02-01T09:29:22;5.80;99.90
13606;DHT22;6874;52.084;5.090;2023-02-01T09:31:48;5.90;99.90
13606;DHT22;6874;52.084;5.090;2023-02-01T09:34:15;5.90;99.90
13606;DHT22;6874;52.084;5.090;2023-02-01T09:36:41;5.90;99.90
13606;DHT22;6874;52.084;5.090;2023-02-01T09:39:07;6.00;99.90
13606;DHT22;6874;52.084;5.090;2023-02-01T09:44:58;6.00;99.90
13606;DHT22;6874;52.084;5.090;2023-02-01T09:47:29;6.00;99.90
13606;DHT22;6874;52.084;5.090;2023-02-01T09:49:59;6.00;99.90
13606;DHT22;6874;52.084;5.090;2023-02-01T09:52:55;6.10;99.90
13606;DHT22;6874;52.084;5.090;2023-02-01T09:55:48;6.10;99.90
13606;DHT22;6874;52.084;5.090;2023-02-01T10:00:52;6.20;99.90
13606;DHT22;6874;52.084;5.090;2023-02-01T10:03:18;6.20;99.90
13606;DHT22;6874;52.084;5.090;2023-02-01T10:06:06;6.20;99.90
13606;DHT22;6874;52.084;5.090;2023-02-01T10:09:10;6.20;99.90
13606;DHT22;6874;52.084;5.090;2023-02-01T10:17:44;6.20;99.90
13606;DHT22;6874;52.084;5.090;2023-02-01T10:26:03;6.30;99.90
13606;DHT22;6874;52.084;5.090;2023-02-01T10:28:43;6.30;99.90
13606;DHT22;6874;52.084;5.090;2023-02-01T10:31:10;6.30;99.90
13606;DHT22;6874;52.084;5.090;2023-02-01T10:33:42;6.30;99.90
13606;DHT22;6874;52.084;5.090;2023-02-01T10:36:11;6.30;99.90
13606;DHT22;6874;52.084;5.090;2023-02-01T10:38:39;6.30;99.90
13606;DHT22;6874;52.084;5.090;2023-02-01T10:41:13;6.30;99.90
13606;DHT22;6874;52.084;5.090;2023-02-01T10:43:40;6.30;99.90
13606;DHT22;6874;52.084;5.090;2023-02-01T10:46:07;6.30;99.90
13606;DHT22;6874;52.084;5.090;2023-02-01T10:48:33;6.30;99.90
13606;DHT22;6874;52.084;5.090;2023-02-01T10:51:08;6.30;99.90
13606;DHT22;6874;52.084;5.090;2023-02-01T10:56:12;6.40;99.90
13606;DHT22;6874;52.084;5.090;2023-02-01T10:58:47;6.40;99.90
13606;DHT22;6874;52.084;5.090;2023-02-01T11:01:23;6.40;99.90
13606;DHT22;6874;52.084;5.090;2023-02-01T11:03:55;6.40;99.90
13606;DHT22;6874;52.084;5.090;2023-02-01T11:06:39;6.40;99.90
13606;DHT22;6874;52.084;5.090;2023-02-01T11:11:31;6.50;99.90
13606;DHT22;6874;52.084;5.090;2023-02-01T11:13:57;6.50;99.90
13606;DHT22;6874;52.084;5.090;2023-02-01T11:16:31;6.50;99.90
13606;DHT22;6874;52.084;5.090;2023-02-01T11:18:58;6.50;99.90
13606;DHT22;6874;52.084;5.090;2023-02-01T11:21:24;6.50;99.90
13606;DHT22;6874;52.084;5.090;2023-02-01T11:23:50;6.60;99.90
13606;DHT22;6874;52.084;5.090;2023-02-01T11:29:01;6.50;99.90
13606;DHT22;6874;52.084;5.090;2023-02-01T11:31:28;6.50;99.90
13606;DHT22;6874;52.084;5.090;2023-02-01T11:33:59;6.60;99.90
13606;DHT22;6874;52.084;5.090;2023-02-01T11:36:29;6.50;99.90
13606;DHT22;6874;52.084;5.090;2023-02-01T11:39:20;6.60;99.90
13606;DHT22;6874;52.084;5.090;2023-02-01T11:42:15;6.60;99.90
13606;DHT22;6874;52.084;5.090;2023-02-01T11:44:45;6.60;99.90
13606;DHT22;6874;52.084;5.090;2023-02-01T11:47:31;6.60;99.90
13606;DHT22;6874;52.084;5.090;2023-02-01T11:50:14;6.70;99.90
13606;DHT22;6874;52.084;5.090;2023-02-01T11:55:45;6.70;99.90
13606;DHT22;6874;52.084;5.090;2023-02-01T12:04:07;6.80;99.90
13606;DHT22;6874;52.084;5.090;2023-02-01T12:06:55;6.80;99.90
13606;DHT22;6874;52.084;5.090;2023-02-01T12:12:19;6.80;99.90
13606;DHT22;6874;52.084;5.090;2023-02-01T12:21:42;6.90;99.90
13606;DHT22;6874;52.084;5.090;2023-02-01T12:23:54;6.90;99.90
13606;DHT22;6874;52.084;5.090;2023-02-01T12:26:52;7.00;99.90
13606;DHT22;6874;52.084;5.090;2023-02-01T12:30:07;7.00;99.90
13606;DHT22;6874;52.084;5.090;2023-02-01T12:32:11;7.00;99.90
13606;DHT22;6874;52.084;5.090;2023-02-01T12:34:49;7.10;99.90
13606;DHT22;6874;52.084;5.090;2023-02-01T12:43:18;7.10;99.90
13606;DHT22;6874;52.084;5.090;2023-02-01T12:46:06;7.10;99.90
13606;DHT22;6874;52.084;5.090;2023-02-01T12:48:42;7.10;99.90
13606;DHT22;6874;52.084;5.090;2023-02-01T12:51:15;7.20;99.90
13606;DHT22;6874;52.084;5.090;2023-02-01T12:53:55;7.20;99.90
13606;DHT22;6874;52.084;5.090;2023-02-01T12:56:40;7.20;99.90
13606;DHT22;6874;52.084;5.090;2023-02-01T12:59:59;7.20;99.90
13606;DHT22;6874;52.084;5.090;2023-02-01T13:02:19;7.30;99.90
13606;DHT22;6874;52.084;5.090;2023-02-01T13:05:01;7.30;99.90
13606;DHT22;6874;52.084;5.090;2023-02-01T13:07:43;7.30;99.90
13606;DHT22;6874;52.084;5.090;2023-02-01T13:12:59;7.40;99.90
13606;DHT22;6874;52.084;5.090;2023-02-01T13:15:30;7.40;99.90
13606;DHT22;6874;52.084;5.090;2023-02-01T13:18:00;7.50;99.90
13606;DHT22;6874;52.084;5.090;2023-02-01T13:23:25;7.50;99.90
13606;DHT22;6874;52.084;5.090;2023-02-01T13:25:52;7.50;99.90
13606;DHT22;6874;52.084;5.090;2023-02-01T13:28:26;7.50;99.90
13606;DHT22;6874;52.084;5.090;2023-02-01T13:36:30;7.50;99.90
13606;DHT22;6874;52.084;5.090;2023-02-01T13:39:24;7.50;99.90
13606;DHT22;6874;52.084;5.090;2023-02-01T13:42:13;7.50;99.90
13606;DHT22;6874;52.084;5.090;2023-02-01T13:44:50;7.50;99.90
13606;DHT22;6874;52.084;5.090;2023-02-01T13:47:24;7.50;99.90
13606;DHT22;6874;52.084;5.090;2023-02-01T13:49:51;7.50;99.90
13606;DHT22;6874;52.084;5.090;2023-02-01T13:52:34;7.50;99.90
13606;DHT22;6874;52.084;5.090;2023-02-01T13:57:39;7.60;99.90
13606;DHT22;6874;52.084;5.090;2023-02-01T14:23:55;7.60;99.90
13606;DHT22;6874;52.084;5.090;2023-02-01T14:34:16;7.60;99.90
13606;DHT22;6874;52.084;5.090;2023-02-01T14:37:01;7.60;99.90
13606;DHT22;6874;52.084;5.090;2023-02-01T14:42:24;7.60;99.90
13606;DHT22;6874;52.084;5.090;2023-02-01T14:44:56;7.60;99.90
13606;DHT22;6874;52.084;5.090;2023-02-01T14:47:37;7.70;99.90
13606;DHT22;6874;52.084;5.090;2023-02-01T14:50:32;7.70;99.90
13606;DHT22;6874;52.084;5.090;2023-02-01T14:53:14;7.70;99.90
13606;DHT22;6874;52.084;5.090;2023-02-01T14:58:41;7.70;99.90
13606;DHT22;6874;52.084;5.090;2023-02-01T15:01:24;7.70;99.90
13606;DHT22;6874;52.084;5.090;2023-02-01T15:04:01;7.70;99.90
13606;DHT22;6874;52.084;5.090;2023-02-01T15:12:03;7.70;99.90
13606;DHT22;6874;52.084;5.090;2023-02-01T15:14:32;7.70;99.90
13606;DHT22;6874;52.084;5.090;2023-02-01T15:16:58;7.70;99.90
13606;DHT22;6874;52.084;5.090;2023-02-01T15:19:26;7.70;99.90
13606;DHT22;6874;52.084;5.090;2023-02-01T15:21:57;7.70;99.90
13606;DHT22;6874;52.084;5.090;2023-02-01T15:24:24;7.70;99.90
13606;DHT22;6874;52.084;5.090;2023-02-01T15:26:51;7.70;99.90
13606;DHT22;6874;52.084;5.090;2023-02-01T15:29:18;7.70;99.90
13606;DHT22;6874;52.084;5.090;2023-02-01T15:31:48;7.70;99.90
13606;DHT22;6874;52.084;5.090;2023-02-01T15:34:14;7.70;99.90
13606;DHT22;6874;52.084;5.090;2023-02-01T15:36:40;7.70;99.90
13606;DHT22;6874;52.084;5.090;2023-02-01T15:39:19;7.70;99.90
13606;DHT22;6874;52.084;5.090;2023-02-01T15:42:11;7.70;99.90
13606;DHT22;6874;52.084;5.090;2023-02-01T15:44:45;7.70;99.90
13606;DHT22;6874;52.084;5.090;2023-02-01T15:47:16;7.70;99.90
13606;DHT22;6874;52.084;5.090;2023-02-01T15:49:45;7.70;99.90
13606;DHT22;6874;52.084;5.090;2023-02-01T15:54:49;7.70;99.90
13606;DHT22;6874;52.084;5.090;2023-02-01T15:57:36;7.70;99.90
13606;DHT22;6874;52.084;5.090;2023-02-01T16:00:08;7.70;99.90
13606;DHT22;6874;52.084;5.090;2023-02-01T16:02:52;7.70;99.90
13606;DHT22;6874;52.084;5.090;2023-02-01T16:08:04;7.70;99.90
13606;DHT22;6874;52.084;5.090;2023-02-01T16:10:31;7.70;99.90
13606;DHT22;6874;52.084;5.090;2023-02-01T16:13:03;7.70;99.90
13606;DHT22;6874;52.084;5.090;2023-02-01T16:15:28;7.70;99.90
13606;DHT22;6874;52.084;5.090;2023-02-01T16:17:57;7.70;99.90
13606;DHT22;6874;52.084;5.090;2023-02-01T16:20:23;7.70;99.90
13606;DHT22;6874;52.084;5.090;2023-02-01T16:22:48;7.70;99.90
13606;DHT22;6874;52.084;5.090;2023-02-01T16:25:14;7.70;99.90
13606;DHT22;6874;52.084;5.090;2023-02-01T16:27:39;7.70;99.90
13606;DHT22;6874;52.084;5.090;2023-02-01T16:30:05;7.70;99.90
13606;DHT22;6874;52.084;5.090;2023-02-01T16:32:35;7.70;99.90
13606;DHT22;6874;52.084;5.090;2023-02-01T16:35:04;7.70;99.90
13606;DHT22;6874;52.084;5.090;2023-02-01T16:37:31;7.70;99.90
13606;DHT22;6874;52.084;5.090;2023-02-01T16:39:59;7.70;99.90
13606;DHT22;6874;52.084;5.090;2023-02-01T16:42:24;7.70;99.90
13606;DHT22;6874;52.084;5.090;2023-02-01T16:44:50;7.70;99.90
13606;DHT22;6874;52.084;5.090;2023-02-01T16:47:24;7.70;99.90
13606;DHT22;6874;52.084;5.090;2023-02-01T16:49:51;7.70;99.90
13606;DHT22;6874;52.084;5.090;2023-02-01T16:52:22;7.70;99.90
13606;DHT22;6874;52.084;5.090;2023-02-01T16:54:51;7.70;99.90
13606;DHT22;6874;52.084;5.090;2023-02-01T16:57:19;7.70;99.90
13606;DHT22;6874;52.084;5.090;2023-02-01T16:59:47;7.70;99.90
13606;DHT22;6874;52.084;5.090;2023-02-01T17:02:14;7.70;99.90
13606;DHT22;6874;52.084;5.090;2023-02-01T17:04:41;7.70;99.90
13606;DHT22;6874;52.084;5.090;2023-02-01T17:07:12;7.70;99.90
13606;DHT22;6874;52.084;5.090;2023-02-01T17:09:40;7.70;99.90
13606;DHT22;6874;52.084;5.090;2023-02-01T17:12:06;7.70;99.90
13606;DHT22;6874;52.084;5.090;2023-02-01T17:14:36;7.70;99.90
13606;DHT22;6874;52.084;5.090;2023-02-01T17:17:04;7.70;99.90
13606;DHT22;6874;52.084;5.090;2023-02-01T17:19:30;7.70;99.90
13606;DHT22;6874;52.084;5.090;2023-02-01T17:21:57;7.70;99.90
13606;DHT22;6874;52.084;5.090;2023-02-01T17:24:26;7.70;99.90
13606;DHT22;6874;52.084;5.090;2023-02-01T17:26:52;7.70;99.90
13606;DHT22;6874;52.084;5.090;2023-02-01T17:29:18;7.70;99.90
13606;DHT22;6874;52.084;5.090;2023-02-01T17:31:46;7.70;99.90
13606;DHT22;6874;52.084;5.090;2023-02-01T17:34:14;7.70;99.90
13606;DHT22;6874;52.084;5.090;2023-02-01T17:36:41;7.70;99.90
13606;DHT22;6874;52.084;5.090;2023-02-01T17:39:07;7.70;99.90
13606;DHT22;6874;52.084;5.090;2023-02-01T17:41:33;7.70;99.90
13606;DHT22;6874;52.084;5.090;2023-02-01T17:43:59;7.70;99.90
13606;DHT22;6874;52.084;5.090;2023-02-01T17:46:25;7.70;99.90
13606;DHT22;6874;52.084;5.090;2023-02-01T17:48:55;7.70;99.90
13606;DHT22;6874;52.084;5.090;2023-02-01T17:51:24;7.80;99.90
13606;DHT22;6874;52.084;5.090;2023-02-01T17:53:51;7.70;99.90
13606;DHT22;6874;52.084;5.090;2023-02-01T17:56:20;7.70;99.90
13606;DHT22;6874;52.084;5.090;2023-02-01T17:58:47;7.80;99.90
13606;DHT22;6874;52.084;5.090;2023-02-01T18:01:22;7.80;99.90
13606;DHT22;6874;52.084;5.090;2023-02-01T18:03:49;7.80;99.90
13606;DHT22;6874;52.084;5.090;2023-02-01T18:06:17;7.80;99.90
13606;DHT22;6874;52.084;5.090;2023-02-01T18:08:43;7.80;99.90
13606;DHT22;6874;52.084;5.090;2023-02-01T18:11:15;7.80;99.90
13606;DHT22;6874;52.084;5.090;2023-02-01T18:13:42;7.80;99.90
13606;DHT22;6874;52.084;5.090;2023-02-01T18:18:45;7.80;99.90
13606;DHT22;6874;52.084;5.090;2023-02-01T18:21:11;7.80;99.90
13606;DHT22;6874;52.084;5.090;2023-02-01T18:23:37;7.80;99.90
13606;DHT22;6874;52.084;5.090;2023-02-01T18:26:02;7.70;99.90
13606;DHT22;6874;52.084;5.090;2023-02-01T18:28:29;7.80;99.90
13606;DHT22;6874;52.084;5.090;2023-02-01T18:30:55;7.80;99.90
13606;DHT22;6874;52.084;5.090;2023-02-01T18:33:21;7.80;99.90
13606;DHT22;6874;52.084;5.090;2023-02-01T18:35:47;7.80;99.90
13606;DHT22;6874;52.084;5.090;2023-02-01T18:38:14;7.80;99.90
13606;DHT22;6874;52.084;5.090;2023-02-01T18:40:46;7.80;99.90
13606;DHT22;6874;52.084;5.090;2023-02-01T18:43:13;7.80;99.90
13606;DHT22;6874;52.084;5.090;2023-02-01T18:45:41;7.80;99.90
13606;DHT22;6874;52.084;5.090;2023-02-01T18:48:08;7.80;99.90
13606;DHT22;6874;52.084;5.090;2023-02-01T18:50:41;7.80;99.90
13606;DHT22;6874;52.084;5.090;2023-02-01T18:53:14;7.80;99.90
13606;DHT22;6874;52.084;5.090;2023-02-01T18:55:40;7.90;99.90